createdAt,value
2022-11-16T00:02:41.228Z,6.03
2022-11-16T00:05:28.681Z,3.63
2022-11-16T00:08:15.671Z,3.97
2022-11-16T00:11:10.753Z,9.77
2022-11-16T00:13:57.815Z,5.70
2022-11-16T00:16:44.885Z,4.00
2022-11-16T00:19:31.938Z,4.03
2022-11-16T00:22:18.901Z,4.07
2022-11-16T00:25:06.489Z,4.70
2022-11-16T00:27:53.461Z,3.83
2022-11-16T00:30:40.577Z,6.60
2022-11-16T00:33:27.602Z,6.17
2022-11-16T00:36:15.175Z,7.10
2022-11-16T00:39:02.494Z,4.83
2022-11-16T00:41:49.994Z,5.47
2022-11-16T00:44:36.973Z,5.33
2022-11-16T00:47:24.026Z,5.10
2022-11-16T00:50:10.959Z,5.10
2022-11-16T00:52:57.964Z,5.37
2022-11-16T00:55:46.586Z,3.80
2022-11-16T00:58:33.807Z,5.00
2022-11-16T01:01:20.976Z,6.47
2022-11-16T01:04:08.117Z,9.10
2022-11-16T01:06:55.108Z,4.80
2022-11-16T01:09:42.105Z,5.20
2022-11-16T01:12:29.323Z,5.10
2022-11-16T01:15:18.025Z,4.63
2022-11-16T01:18:05.048Z,4.50
2022-11-16T01:20:53.691Z,5.30
2022-11-16T01:23:40.722Z,4.87
2022-11-16T01:26:27.988Z,4.93
2022-11-16T01:29:14.957Z,5.37
2022-11-16T01:32:01.976Z,4.87
2022-11-16T01:34:49.651Z,4.90
2022-11-16T01:37:36.648Z,5.13
2022-11-16T01:40:23.565Z,5.37
2022-11-16T01:43:28.845Z,4.10
2022-11-16T01:46:15.809Z,4.70
2022-11-16T01:49:10.722Z,6.93
2022-11-16T01:52:12.074Z,6.17
2022-11-16T01:55:00.282Z,4.90
2022-11-16T01:57:48.549Z,4.60
2022-11-16T02:00:35.520Z,4.50
2022-11-16T02:03:22.612Z,5.23
2022-11-16T02:06:43.101Z,4.90
2022-11-16T02:09:59.138Z,7.93
2022-11-16T02:13:07.911Z,5.60
2022-11-16T02:16:33.057Z,4.33
2022-11-16T02:19:38.215Z,4.30
2022-11-16T02:22:59.245Z,5.97
2022-11-16T02:25:49.153Z,5.70
2022-11-16T02:29:11.600Z,6.10
2022-11-16T02:32:20.192Z,5.20
2022-11-16T02:35:07.507Z,5.70
2022-11-16T02:37:59.997Z,7.77
2022-11-16T02:40:51.503Z,5.37
2022-11-16T02:43:45.743Z,5.97
2022-11-16T02:46:38.298Z,5.27
2022-11-16T02:49:28.256Z,8.00
2022-11-16T02:52:16.576Z,7.87
2022-11-16T02:55:03.846Z,5.43
2022-11-16T02:57:59.151Z,9.50
2022-11-16T03:01:13.037Z,11.00
2022-11-16T03:04:34.045Z,5.93
2022-11-16T03:07:26.453Z,7.27
2022-11-16T03:10:35.418Z,10.23
2022-11-16T03:13:24.912Z,8.13
2022-11-16T03:16:20.960Z,7.60
2022-11-16T03:19:13.282Z,8.07
2022-11-16T03:22:09.544Z,8.70
2022-11-16T03:24:57.263Z,8.17
2022-11-16T03:28:03.774Z,10.83
2022-11-16T03:31:04.359Z,10.50
2022-11-16T03:33:56.235Z,10.07
2022-11-16T03:36:47.280Z,10.80
2022-11-16T03:39:39.020Z,7.73
2022-11-16T03:42:27.572Z,10.77
2022-11-16T03:45:14.548Z,10.93
2022-11-16T03:48:01.546Z,7.80
2022-11-16T03:50:52.129Z,8.40
2022-11-16T03:53:39.579Z,11.47
2022-11-16T03:56:27.147Z,9.67
2022-11-16T03:59:14.165Z,10.17
2022-11-16T04:02:01.072Z,11.37
2022-11-16T04:05:06.708Z,8.67
2022-11-16T04:08:12.542Z,10.10
2022-11-16T04:11:18.260Z,9.93
2022-11-16T04:14:24.460Z,11.17
2022-11-16T04:17:34.680Z,10.73
2022-11-16T04:20:40.147Z,14.77
2022-11-16T04:23:45.890Z,12.73
2022-11-16T04:26:52.649Z,10.37
2022-11-16T04:29:40.422Z,11.83
2022-11-16T04:32:46.307Z,12.27
2022-11-16T04:35:51.920Z,12.47
2022-11-16T04:38:38.904Z,11.30
2022-11-16T04:41:55.505Z,12.70
2022-11-16T04:45:01.287Z,12.57
2022-11-16T04:47:49.658Z,12.97
2022-11-16T04:50:37.364Z,13.13
2022-11-16T04:53:27.126Z,14.10
2022-11-16T04:56:14.165Z,11.33
2022-11-16T04:59:01.180Z,9.30
2022-11-16T05:02:06.712Z,12.87
2022-11-16T05:04:53.709Z,11.33
2022-11-16T05:07:40.819Z,11.47
2022-11-16T05:10:27.943Z,12.87
2022-11-16T05:13:14.953Z,13.50
2022-11-16T05:16:01.876Z,11.43
2022-11-16T05:19:08.851Z,11.97
2022-11-16T05:21:55.839Z,13.57
2022-11-16T05:24:42.885Z,16.30
2022-11-16T05:27:30.305Z,16.27
2022-11-16T05:30:17.551Z,14.93
2022-11-16T05:33:04.547Z,16.17
2022-11-16T05:35:51.880Z,16.90
2022-11-16T05:38:38.836Z,13.27
2022-11-16T05:41:25.826Z,15.77
2022-11-16T05:44:14.004Z,17.27
2022-11-16T05:47:01.608Z,16.23
2022-11-16T05:49:48.609Z,19.40
2022-11-16T05:52:35.604Z,16.63
2022-11-16T05:55:22.769Z,18.57
2022-11-16T05:58:09.763Z,15.53
2022-11-16T06:00:57.968Z,17.50
2022-11-16T06:03:44.943Z,16.17
2022-11-16T06:06:31.996Z,19.13
2022-11-16T06:09:19.194Z,21.23
2022-11-16T06:12:06.257Z,17.13
2022-11-16T06:14:53.244Z,16.40
2022-11-16T06:17:40.221Z,18.80
2022-11-16T06:20:27.207Z,16.43
2022-11-16T06:23:14.266Z,19.03
2022-11-16T06:26:02.000Z,19.90
2022-11-16T06:28:48.986Z,18.67
2022-11-16T06:31:36.031Z,17.97
2022-11-16T06:34:23.049Z,20.30
2022-11-16T06:37:10.068Z,22.30
2022-11-16T06:39:57.066Z,19.97
2022-11-16T06:42:44.053Z,23.63
2022-11-16T06:45:31.105Z,21.27
2022-11-16T06:48:18.821Z,21.33
2022-11-16T06:51:06.075Z,22.47
2022-11-16T06:53:53.012Z,21.63
2022-11-16T06:56:40.029Z,21.17
2022-11-16T06:59:26.998Z,21.33
2022-11-16T07:02:14.059Z,21.93
2022-11-16T07:05:03.705Z,23.20
2022-11-16T07:07:55.641Z,22.67
2022-11-16T07:10:42.595Z,21.87
2022-11-16T07:13:31.982Z,22.47
2022-11-16T07:16:18.975Z,21.73
2022-11-16T07:19:06.335Z,27.03
2022-11-16T07:21:53.369Z,22.87
2022-11-16T07:24:40.334Z,21.03
2022-11-16T07:27:27.549Z,23.57
2022-11-16T07:30:14.935Z,21.20
2022-11-16T07:33:02.215Z,20.97
2022-11-16T07:35:50.849Z,24.43
2022-11-16T07:38:39.223Z,24.23
2022-11-16T07:41:26.207Z,23.87
2022-11-16T07:44:13.266Z,24.10
2022-11-16T07:47:01.882Z,18.53
2022-11-16T07:49:49.041Z,19.53
2022-11-16T07:52:35.933Z,21.60
2022-11-16T07:55:25.176Z,17.97
2022-11-16T07:58:12.091Z,17.57
2022-11-16T08:01:15.742Z,18.00
2022-11-16T08:04:03.007Z,14.07
2022-11-16T08:06:52.081Z,16.97
2022-11-16T08:09:39.560Z,19.93
2022-11-16T08:12:26.622Z,21.00
2022-11-16T08:15:14.217Z,18.83
2022-11-16T08:18:01.186Z,18.33
2022-11-16T08:20:48.241Z,15.97
2022-11-16T08:23:35.359Z,14.97
2022-11-16T08:26:22.943Z,20.33
2022-11-16T08:29:09.901Z,19.97
2022-11-16T08:31:56.973Z,15.17
2022-11-16T08:34:44.171Z,17.20
2022-11-16T08:37:32.190Z,15.90
2022-11-16T08:40:19.242Z,20.30
2022-11-16T08:43:06.247Z,14.77
2022-11-16T08:45:57.500Z,15.53
2022-11-16T08:48:44.885Z,16.83
2022-11-16T08:51:32.044Z,16.47
2022-11-16T08:54:19.058Z,17.13
2022-11-16T08:57:05.992Z,16.80
2022-11-16T08:59:52.985Z,17.33
2022-11-16T09:02:39.904Z,16.20
2022-11-16T09:05:26.880Z,17.07
2022-11-16T09:08:13.901Z,18.37
2022-11-16T09:11:04.948Z,20.00
2022-11-16T09:13:55.025Z,19.60
2022-11-16T09:16:41.979Z,21.07
2022-11-16T09:19:28.966Z,23.13
2022-11-16T09:22:15.991Z,23.80
2022-11-16T09:25:03.057Z,19.00
2022-11-16T09:27:50.011Z,20.87
2022-11-16T09:30:37.622Z,26.80
2022-11-16T09:33:24.612Z,22.90
2022-11-16T09:36:11.570Z,26.77
2022-11-16T09:39:29.949Z,24.73
2022-11-16T09:42:43.304Z,26.63
2022-11-16T09:45:30.218Z,27.97
2022-11-16T09:48:18.852Z,34.03
2022-11-16T09:51:10.180Z,31.77
2022-11-16T09:54:06.077Z,31.53
2022-11-16T09:56:58.064Z,28.53
2022-11-16T09:59:51.938Z,32.83
2022-11-16T10:02:45.129Z,35.83
2022-11-16T10:06:04.438Z,33.30
2022-11-16T10:08:53.567Z,34.77
2022-11-16T10:12:06.814Z,31.23
2022-11-16T10:15:26.437Z,43.70
2022-11-16T10:18:32.167Z,38.53
2022-11-16T10:21:27.973Z,34.67
2022-11-16T10:24:42.819Z,42.07
2022-11-16T10:27:42.716Z,37.97
2022-11-16T10:30:35.564Z,41.13
2022-11-16T10:33:25.519Z,36.33
2022-11-16T10:36:16.487Z,39.57
2022-11-16T10:39:10.380Z,41.57
2022-11-16T10:42:07.504Z,42.23
2022-11-16T10:45:12.507Z,39.90
2022-11-16T10:48:31.829Z,42.17
2022-11-16T10:51:18.912Z,37.83
2022-11-16T10:54:13.570Z,42.47
2022-11-16T10:57:05.888Z,39.47
2022-11-16T10:59:59.055Z,40.30
2022-11-16T11:02:49.139Z,41.03
2022-11-16T11:05:36.934Z,41.37
2022-11-16T11:08:32.756Z,42.63
2022-11-16T11:11:42.724Z,41.50
2022-11-16T11:14:33.796Z,39.37
2022-11-16T11:17:26.680Z,43.70
2022-11-16T11:20:16.883Z,45.57
2022-11-16T11:23:13.282Z,44.87
2022-11-16T11:26:01.170Z,47.63
2022-11-16T11:28:50.050Z,42.00
2022-11-16T11:31:45.222Z,43.40
2022-11-16T11:34:41.875Z,43.87
2022-11-16T11:37:36.655Z,44.40
2022-11-16T11:40:27.852Z,42.60
2022-11-16T11:43:23.920Z,47.37
2022-11-16T11:46:23.473Z,41.43
2022-11-16T11:49:18.841Z,46.70
2022-11-16T11:52:21.535Z,46.40
2022-11-16T11:55:15.079Z,42.17
2022-11-16T11:58:04.860Z,40.63
2022-11-16T12:01:04.936Z,46.37
2022-11-16T12:04:16.594Z,46.23
2022-11-16T12:07:24.419Z,46.07
2022-11-16T12:10:22.060Z,42.97
2022-11-16T12:13:54.502Z,41.60
2022-11-16T12:17:05.492Z,43.87
2022-11-16T12:20:02.040Z,42.43
2022-11-16T12:23:17.188Z,44.47
2022-11-16T12:26:14.953Z,39.27
2022-11-16T12:29:28.224Z,38.23
2022-11-16T12:32:30.256Z,46.03
2022-11-16T12:35:49.219Z,41.30
2022-11-16T12:38:45.128Z,41.10
2022-11-16T12:41:39.431Z,42.30
2022-11-16T12:44:47.623Z,47.13
2022-11-16T12:48:05.365Z,41.93
2022-11-16T12:51:30.500Z,41.07
2022-11-16T12:54:57.961Z,40.77
2022-11-16T12:58:13.284Z,42.93
2022-11-16T13:01:21.703Z,40.93
2022-11-16T13:04:24.888Z,42.17
2022-11-16T13:07:38.987Z,39.13
2022-11-16T13:10:33.864Z,43.60
2022-11-16T13:13:36.312Z,39.50
2022-11-16T13:16:24.921Z,38.70
2022-11-16T13:19:15.021Z,45.63
2022-11-16T13:22:09.800Z,35.10
2022-11-16T13:25:24.677Z,35.57
2022-11-16T13:28:33.566Z,38.17
2022-11-16T13:31:23.787Z,33.37
2022-11-16T13:34:26.312Z,37.47
2022-11-16T13:37:38.261Z,34.70
2022-11-16T13:40:30.672Z,33.17
2022-11-16T13:43:19.108Z,33.37
2022-11-16T13:46:06.112Z,35.87
2022-11-16T13:48:53.761Z,35.53
2022-11-16T13:51:52.159Z,29.67
2022-11-16T13:54:45.760Z,32.30
2022-11-16T13:57:34.786Z,30.97
2022-11-16T14:00:26.399Z,29.93
2022-11-16T14:03:16.486Z,29.90
2022-11-16T14:06:03.753Z,30.27
2022-11-16T14:08:58.191Z,33.40
2022-11-16T14:11:45.155Z,32.80
2022-11-16T14:15:03.945Z,31.33
2022-11-16T14:17:54.645Z,29.97
2022-11-16T14:20:51.146Z,30.37
2022-11-16T14:23:59.782Z,31.67
2022-11-16T14:27:01.859Z,28.13
2022-11-16T14:30:25.015Z,26.67
2022-11-16T14:33:23.456Z,30.40
2022-11-16T14:36:10.935Z,27.77
2022-11-16T14:39:17.663Z,31.57
2022-11-16T14:42:17.973Z,29.93
2022-11-16T14:45:12.203Z,34.47
2022-11-16T14:48:03.721Z,39.77
2022-11-16T14:51:10.478Z,34.63
2022-11-16T14:54:33.753Z,34.33
2022-11-16T14:57:23.462Z,34.63
2022-11-16T15:00:23.094Z,32.00
2022-11-16T15:03:12.438Z,32.10
2022-11-16T15:06:00.935Z,30.53
2022-11-16T15:09:03.233Z,32.30
2022-11-16T15:12:10.637Z,29.70
2022-11-16T15:15:06.680Z,31.33
2022-11-16T15:17:59.655Z,33.53
2022-11-16T15:20:51.992Z,33.50
2022-11-16T15:24:02.147Z,34.17
2022-11-16T15:26:58.281Z,31.63
2022-11-16T15:29:45.383Z,31.97
2022-11-16T15:32:38.337Z,31.33
2022-11-16T15:35:31.982Z,32.63
2022-11-16T15:38:26.173Z,34.10
2022-11-16T15:41:13.365Z,35.07
2022-11-16T15:44:14.012Z,33.63
2022-11-16T15:47:03.488Z,35.77
2022-11-16T15:49:53.150Z,32.80
2022-11-16T15:52:45.851Z,34.20
2022-11-16T15:55:39.306Z,36.07
2022-11-16T15:58:31.115Z,36.77
2022-11-16T16:01:19.998Z,36.67
2022-11-16T16:04:08.113Z,41.43
2022-11-16T16:06:57.715Z,38.07
2022-11-16T16:09:45.404Z,40.23
2022-11-16T16:12:32.378Z,41.77
2022-11-16T16:15:29.943Z,45.20
2022-11-16T16:18:39.404Z,42.03
2022-11-16T16:21:39.547Z,44.67
2022-11-16T16:24:46.787Z,40.50
2022-11-16T16:27:40.055Z,40.50
2022-11-16T16:30:28.855Z,44.33
2022-11-16T16:33:19.283Z,47.67
2022-11-16T16:36:07.152Z,43.17
2022-11-16T16:38:54.549Z,50.03
2022-11-16T16:41:41.563Z,49.23
2022-11-16T16:44:28.561Z,48.23
2022-11-16T16:47:16.552Z,47.53
2022-11-16T16:50:04.223Z,44.83
2022-11-16T16:52:51.280Z,53.07
2022-11-16T16:55:38.555Z,48.00
2022-11-16T16:58:25.484Z,51.17
2022-11-16T17:01:12.691Z,49.47
2022-11-16T17:03:59.740Z,46.73
2022-11-16T17:06:48.050Z,51.00
2022-11-16T17:09:35.101Z,51.93
2022-11-16T17:12:22.141Z,51.30
2022-11-16T17:15:09.386Z,53.40
2022-11-16T17:17:58.127Z,52.10
2022-11-16T17:20:45.625Z,55.47
2022-11-16T17:23:33.475Z,52.10
2022-11-16T17:26:21.015Z,52.67
2022-11-16T17:29:08.219Z,50.33
2022-11-16T17:31:55.221Z,49.40
2022-11-16T17:34:42.160Z,47.77
2022-11-16T17:37:29.376Z,54.27
2022-11-16T17:40:16.423Z,59.23
2022-11-16T17:43:03.415Z,56.50
2022-11-16T17:45:50.460Z,53.13
2022-11-16T17:48:38.884Z,57.80
2022-11-16T17:51:26.572Z,54.23
2022-11-16T17:54:14.185Z,54.23
2022-11-16T17:57:01.216Z,58.83
2022-11-16T17:59:48.271Z,51.33
2022-11-16T18:02:35.185Z,58.13
2022-11-16T18:05:22.163Z,51.17
2022-11-16T18:08:09.176Z,53.53
2022-11-16T18:10:56.345Z,55.13
2022-11-16T18:13:44.274Z,64.40
2022-11-16T18:16:33.458Z,49.67
2022-11-16T18:19:20.799Z,52.13
2022-11-16T18:22:07.800Z,55.63
2022-11-16T18:24:54.700Z,52.20
2022-11-16T18:27:41.707Z,57.50
2022-11-16T18:30:28.700Z,52.03
2022-11-16T18:33:16.536Z,50.07
2022-11-16T18:36:05.150Z,51.53
2022-11-16T18:38:52.475Z,50.57
2022-11-16T18:41:44.693Z,49.13
2022-11-16T18:44:33.906Z,51.57
2022-11-16T18:47:20.826Z,47.33
2022-11-16T18:50:18.981Z,48.87
2022-11-16T18:53:07.187Z,49.97
2022-11-16T18:55:57.858Z,56.37
2022-11-16T18:58:53.315Z,49.77
2022-11-16T19:01:40.913Z,48.00
2022-11-16T19:04:28.696Z,50.00
2022-11-16T19:07:15.843Z,51.97
2022-11-16T19:10:02.915Z,49.03
2022-11-16T19:12:49.855Z,46.23
2022-11-16T19:15:36.841Z,49.97
2022-11-16T19:18:23.870Z,57.00
2022-11-16T19:21:13.720Z,48.47
2022-11-16T19:24:00.804Z,47.73
2022-11-16T19:26:47.921Z,45.87
2022-11-16T19:29:34.889Z,46.73
2022-11-16T19:32:21.869Z,46.93
2022-11-16T19:35:11.061Z,51.87
2022-11-16T19:37:58.536Z,45.17
2022-11-16T19:40:45.599Z,47.03
2022-11-16T19:43:33.336Z,43.13
2022-11-16T19:46:21.547Z,44.63
2022-11-16T19:49:10.282Z,59.67
2022-11-16T19:51:57.314Z,50.53
2022-11-16T19:54:44.280Z,85.57
2022-11-16T19:57:31.282Z,72.93
2022-11-16T20:00:18.396Z,42.33
2022-11-16T20:03:05.408Z,44.13
2022-11-16T20:05:52.389Z,45.53
2022-11-16T20:08:41.071Z,36.77
2022-11-16T20:11:30.808Z,39.97
2022-11-16T20:14:18.069Z,35.83
2022-11-16T20:17:05.316Z,36.77
2022-11-16T20:19:52.200Z,40.37
2022-11-16T20:22:39.141Z,37.77
2022-11-16T20:25:26.103Z,41.67
2022-11-16T20:28:13.100Z,40.23
2022-11-16T20:31:01.160Z,37.73
2022-11-16T20:33:56.365Z,40.23
2022-11-16T20:36:45.936Z,40.97
2022-11-16T20:39:32.896Z,40.07
2022-11-16T20:42:19.901Z,37.80
2022-11-16T20:45:07.712Z,35.23
2022-11-16T20:47:54.736Z,35.03
2022-11-16T20:50:41.697Z,36.30
2022-11-16T20:53:28.704Z,32.73
2022-11-16T20:56:17.653Z,33.00
2022-11-16T20:59:05.420Z,34.10
2022-11-16T21:01:55.282Z,35.07
2022-11-16T21:04:42.321Z,32.63
2022-11-16T21:07:29.341Z,29.50
2022-11-16T21:10:19.892Z,29.93
2022-11-16T21:13:31.175Z,27.20
2022-11-16T21:16:18.176Z,26.10
2022-11-16T21:19:05.660Z,26.50
2022-11-16T21:21:52.713Z,22.73
2022-11-16T21:24:39.675Z,21.37
2022-11-16T21:27:26.667Z,23.47
2022-11-16T21:30:14.193Z,21.47
2022-11-16T21:33:01.276Z,19.20
2022-11-16T21:35:48.280Z,18.40
2022-11-16T21:38:35.343Z,18.03
2022-11-16T21:41:24.150Z,19.27
2022-11-16T21:44:11.185Z,16.17
2022-11-16T21:46:58.109Z,16.97
2022-11-16T21:50:09.836Z,16.43
2022-11-16T21:52:52.118Z,15.10
2022-11-16T21:55:39.122Z,16.77
2022-11-16T21:58:26.403Z,16.23
2022-11-16T22:01:16.437Z,16.83
2022-11-16T22:04:22.083Z,17.40
2022-11-16T22:07:32.798Z,16.80
2022-11-16T22:10:19.942Z,17.87
2022-11-16T22:13:06.873Z,16.23
2022-11-16T22:15:53.875Z,16.20
2022-11-16T22:18:41.351Z,17.50
2022-11-16T22:21:28.298Z,16.60
2022-11-16T22:24:15.347Z,18.17
2022-11-16T22:27:02.404Z,16.60
2022-11-16T22:29:49.419Z,17.27
2022-11-16T22:32:36.392Z,16.63
2022-11-16T22:35:23.383Z,15.70
2022-11-16T22:38:11.023Z,17.23
2022-11-16T22:40:58.230Z,16.40
2022-11-16T22:43:45.132Z,16.90
2022-11-16T22:46:32.144Z,17.80
2022-11-16T22:49:19.461Z,16.50
2022-11-16T22:52:06.459Z,16.57
2022-11-16T22:54:53.776Z,17.60
2022-11-16T22:57:40.675Z,16.70
2022-11-16T23:00:27.685Z,17.60
2022-11-16T23:03:14.626Z,18.30
2022-11-16T23:06:02.037Z,18.23
2022-11-16T23:08:49.004Z,17.47
2022-11-16T23:11:54.613Z,22.50
2022-11-16T23:15:16.541Z,19.27
2022-11-16T23:18:03.688Z,20.30
2022-11-16T23:21:09.104Z,19.00
2022-11-16T23:24:24.945Z,21.33
2022-11-16T23:27:29.926Z,19.90
2022-11-16T23:30:17.544Z,19.70
2022-11-16T23:33:04.574Z,18.33
2022-11-16T23:35:51.593Z,19.67
2022-11-16T23:38:39.109Z,19.53
2022-11-16T23:41:44.679Z,18.80
2022-11-16T23:44:31.657Z,21.43
2022-11-16T23:47:18.608Z,18.83
2022-11-16T23:50:05.837Z,16.73
2022-11-16T23:52:52.837Z,20.13
2022-11-16T23:55:40.683Z,17.50
2022-11-16T23:58:27.768Z,17.27
